createdAt,value
2019-03-13T00:00:16.006Z,3.33
2019-03-13T00:05:22.025Z,1.34
2019-03-13T00:10:28.035Z,1.28
2019-03-13T00:15:34.036Z,1.20
2019-03-13T00:20:40.041Z,1.21
2019-03-13T00:25:46.027Z,1.22
2019-03-13T00:30:52.017Z,2.01
2019-03-13T00:35:58.055Z,1.05
2019-03-13T00:41:04.085Z,1.07
2019-03-13T00:46:10.083Z,1.06
2019-03-13T00:51:16.086Z,1.42
2019-03-13T00:56:22.104Z,1.33
2019-03-13T01:01:28.229Z,1.37
2019-03-13T01:06:34.253Z,1.05
2019-03-13T01:11:40.263Z,1.71
2019-03-13T01:16:46.275Z,2.41
2019-03-13T01:21:52.298Z,1.11
2019-03-13T01:26:58.303Z,1.12
2019-03-13T01:32:04.332Z,2.46
2019-03-13T01:37:10.314Z,1.49
2019-03-13T01:42:16.316Z,1.19
2019-03-13T01:47:22.313Z,2.48
2019-03-13T01:52:28.281Z,2.62
2019-03-13T01:57:34.258Z,3.28
2019-03-13T02:02:40.258Z,4.25
2019-03-13T02:07:46.306Z,2.47
2019-03-13T02:12:52.318Z,4.36
2019-03-13T02:17:58.317Z,4.17
2019-03-13T02:23:04.330Z,3.11
2019-03-13T02:28:10.284Z,6.74
2019-03-13T02:33:16.274Z,7.13
2019-03-13T02:38:22.266Z,4.18
2019-03-13T02:43:28.258Z,3.99
2019-03-13T02:48:34.255Z,3.66
2019-03-13T02:53:40.285Z,3.47
2019-03-13T02:58:46.276Z,2.56
2019-03-13T03:03:52.324Z,3.00
2019-03-13T03:08:58.356Z,3.59
2019-03-13T03:14:04.330Z,4.08
2019-03-13T03:19:10.326Z,2.97
2019-03-13T03:24:16.329Z,2.65
2019-03-13T03:29:22.340Z,3.85
2019-03-13T03:34:28.300Z,3.11
2019-03-13T03:39:34.299Z,3.90
2019-03-13T03:44:40.293Z,6.19
2019-03-13T03:49:46.266Z,4.28
2019-03-13T03:54:52.253Z,4.14
2019-03-13T03:59:58.251Z,4.56
2019-03-13T04:05:04.225Z,3.95
2019-03-13T04:10:10.248Z,3.75
2019-03-13T04:15:16.224Z,7.32
2019-03-13T04:20:22.234Z,3.29
2019-03-13T04:25:28.265Z,3.49
2019-03-13T04:30:34.260Z,7.21
2019-03-13T04:35:40.286Z,5.13
2019-03-13T04:40:46.251Z,4.37
2019-03-13T04:45:52.272Z,4.71
2019-03-13T04:50:58.273Z,3.62
2019-03-13T04:56:04.274Z,3.49
2019-03-13T05:01:10.267Z,4.03
2019-03-13T05:06:16.255Z,6.92
2019-03-13T05:11:22.348Z,5.00
2019-03-13T05:16:28.309Z,2.94
2019-03-13T05:21:34.313Z,3.94
2019-03-13T05:26:40.294Z,3.54
2019-03-13T05:31:46.317Z,4.39
2019-03-13T05:36:52.309Z,4.23
2019-03-13T05:41:58.350Z,4.01
2019-03-13T05:47:04.360Z,5.93
2019-03-13T05:52:10.367Z,3.98
2019-03-13T05:57:16.361Z,4.77
2019-03-13T06:02:22.445Z,9.18
2019-03-13T06:07:28.421Z,7.27
2019-03-13T06:12:34.677Z,8.83
2019-03-13T06:17:40.659Z,5.10
2019-03-13T06:22:46.668Z,9.12
2019-03-13T06:27:52.718Z,5.25
2019-03-13T06:32:58.712Z,6.30
2019-03-13T06:38:04.710Z,4.62
2019-03-13T06:43:10.740Z,4.76
2019-03-13T06:48:16.734Z,5.26
2019-03-13T06:53:22.759Z,4.91
2019-03-13T06:58:28.751Z,9.39
2019-03-13T07:03:34.843Z,10.70
2019-03-13T07:08:40.954Z,4.31
2019-03-13T07:13:46.866Z,5.92
2019-03-13T07:18:52.906Z,10.99
2019-03-13T07:23:58.941Z,4.85
2019-03-13T07:29:12.077Z,6.33
2019-03-13T07:34:11.178Z,5.44
2019-03-13T07:39:17.282Z,5.97
2019-03-13T07:44:23.297Z,6.24
2019-03-13T07:49:29.528Z,6.54
2019-03-13T07:54:35.990Z,5.27
2019-03-13T07:59:42.083Z,6.55
2019-03-13T08:04:48.196Z,5.20
2019-03-13T08:09:54.171Z,5.78
2019-03-13T08:15:00.371Z,5.26
2019-03-13T08:20:06.503Z,5.02
2019-03-13T08:25:12.681Z,5.01
2019-03-13T08:30:20.420Z,4.14
2019-03-13T08:35:25.025Z,3.94
2019-03-13T08:40:31.056Z,4.04
2019-03-13T08:45:37.117Z,10.43
2019-03-13T08:50:43.145Z,7.57
2019-03-13T08:55:49.435Z,3.94
2019-03-13T09:00:55.517Z,4.22
2019-03-13T09:06:01.597Z,3.83
2019-03-13T09:11:08.078Z,4.75
2019-03-13T09:16:14.085Z,3.84
2019-03-13T09:21:20.133Z,8.60
2019-03-13T09:26:26.224Z,4.31
2019-03-13T09:31:32.268Z,7.98
2019-03-13T09:36:38.255Z,7.11
2019-03-13T09:41:44.370Z,4.19
2019-03-13T09:46:50.270Z,3.80
2019-03-13T09:51:56.279Z,3.76
2019-03-13T09:57:02.281Z,5.84
2019-03-13T10:02:08.264Z,6.80
2019-03-13T10:07:16.386Z,2.80
2019-03-13T10:12:22.410Z,3.06
2019-03-13T10:17:28.468Z,3.98
2019-03-13T10:22:34.554Z,2.93
2019-03-13T10:27:40.571Z,2.52
2019-03-13T10:32:46.681Z,5.11
2019-03-13T10:37:52.710Z,2.84
2019-03-13T10:42:59.287Z,2.39
2019-03-13T10:48:05.309Z,4.33
2019-03-13T10:53:11.386Z,3.05
2019-03-13T10:58:17.358Z,2.05
2019-03-13T11:03:23.361Z,2.38
2019-03-13T11:08:29.396Z,2.76
2019-03-13T11:13:35.452Z,1.58
2019-03-13T11:18:41.575Z,1.69
2019-03-13T11:23:47.608Z,2.31
2019-03-13T11:28:53.639Z,2.51
2019-03-13T11:33:59.678Z,2.69
2019-03-13T11:39:05.696Z,2.10
2019-03-13T11:44:12.039Z,1.94
2019-03-13T11:49:18.086Z,1.72
2019-03-13T11:54:26.755Z,0.90
2019-03-13T11:59:31.885Z,1.12
2019-03-13T12:04:38.034Z,0.87
2019-03-13T12:09:44.196Z,0.67
2019-03-13T12:14:50.353Z,2.29
2019-03-13T12:19:56.574Z,1.32
2019-03-13T12:25:02.614Z,1.47
2019-03-13T12:30:08.623Z,1.60
2019-03-13T12:35:14.746Z,1.37
2019-03-13T12:40:20.945Z,3.39
2019-03-13T12:45:27.733Z,0.97
2019-03-13T12:50:34.510Z,1.65
2019-03-13T12:55:42.872Z,1.15
2019-03-13T13:00:48.065Z,1.10
2019-03-13T13:05:54.720Z,0.75
2019-03-13T13:11:00.785Z,0.97
2019-03-13T13:16:06.793Z,0.66
2019-03-13T13:21:13.051Z,0.83
2019-03-13T13:26:19.162Z,1.08
2019-03-13T13:31:25.197Z,0.89
2019-03-13T13:36:31.197Z,0.89
2019-03-13T13:41:38.108Z,2.22
2019-03-13T13:46:44.680Z,1.94
2019-03-13T13:51:49.881Z,1.70
2019-03-13T13:56:55.938Z,0.96
2019-03-13T14:02:02.040Z,2.94
2019-03-13T14:07:08.098Z,1.41
2019-03-13T14:12:14.189Z,3.72
2019-03-13T14:17:20.235Z,0.86
2019-03-13T14:22:26.262Z,2.17
2019-03-13T14:27:32.519Z,0.90
2019-03-13T14:32:38.591Z,1.16
2019-03-13T14:37:44.625Z,1.39
2019-03-13T14:42:50.788Z,0.85
2019-03-13T14:47:56.767Z,1.41
2019-03-13T14:53:02.761Z,1.66
2019-03-13T14:58:08.954Z,3.55
2019-03-13T15:03:14.931Z,2.50
2019-03-13T15:08:20.938Z,2.85
2019-03-13T15:13:26.959Z,2.38
2019-03-13T15:18:32.965Z,3.56
2019-03-13T15:23:39.011Z,2.48
2019-03-13T15:28:45.018Z,4.16
2019-03-13T15:33:51.081Z,2.76
2019-03-13T15:38:57.108Z,2.95
2019-03-13T15:44:03.282Z,2.60
2019-03-13T15:49:09.338Z,2.70
2019-03-13T15:54:15.379Z,4.65
2019-03-13T15:59:21.496Z,2.92
2019-03-13T16:04:27.524Z,3.76
2019-03-13T16:09:33.565Z,3.12
2019-03-13T16:14:39.658Z,5.84
2019-03-13T16:19:45.676Z,3.93
2019-03-13T16:24:51.740Z,4.05
2019-03-13T16:29:57.825Z,4.27
2019-03-13T16:35:03.985Z,3.68
2019-03-13T16:40:10.043Z,2.82
2019-03-13T16:45:16.050Z,3.26
2019-03-13T16:50:22.109Z,2.24
2019-03-13T16:55:28.125Z,2.71
2019-03-13T17:00:34.167Z,3.62
2019-03-13T17:05:40.210Z,2.87
2019-03-13T17:10:46.420Z,2.53
2019-03-13T17:15:52.576Z,2.42
2019-03-13T17:20:58.579Z,2.83
2019-03-13T17:26:04.677Z,2.72
2019-03-13T17:31:10.702Z,3.01
2019-03-13T17:36:16.805Z,1.55
2019-03-13T17:41:22.876Z,2.51
2019-03-13T17:46:28.881Z,1.64
2019-03-13T17:51:34.972Z,2.31
2019-03-13T17:56:41.052Z,3.44
2019-03-13T18:01:47.072Z,2.70
2019-03-13T18:06:53.092Z,2.71
2019-03-13T18:11:59.227Z,3.53
2019-03-13T18:17:05.279Z,3.62
2019-03-13T18:22:11.786Z,3.22
2019-03-13T18:27:17.823Z,3.44
2019-03-13T18:32:23.819Z,3.16
2019-03-13T18:37:29.976Z,3.66
2019-03-13T18:42:36.122Z,7.94
2019-03-13T18:47:42.259Z,6.32
2019-03-13T18:52:48.377Z,6.60
2019-03-13T18:57:54.592Z,6.00
2019-03-13T19:03:00.853Z,7.04
2019-03-13T19:08:06.941Z,6.82
2019-03-13T19:13:13.001Z,5.31
2019-03-13T19:18:19.039Z,4.19
2019-03-13T19:23:25.261Z,7.38
2019-03-13T19:28:31.375Z,3.83
2019-03-13T19:33:37.328Z,3.36
2019-03-13T19:38:43.620Z,3.64
2019-03-13T19:43:49.762Z,5.51
2019-03-13T19:48:55.892Z,6.20
2019-03-13T19:54:02.041Z,5.80
2019-03-13T19:59:08.141Z,6.71
2019-03-13T20:04:14.196Z,15.46
2019-03-13T20:09:20.253Z,7.78
2019-03-13T20:14:26.282Z,10.79
2019-03-13T20:19:32.355Z,5.49
2019-03-13T20:24:38.856Z,6.72
2019-03-13T20:29:43.996Z,9.93
2019-03-13T20:34:50.048Z,9.39
2019-03-13T20:39:56.093Z,12.73
2019-03-13T20:45:03.102Z,9.10
2019-03-13T20:50:09.136Z,13.48
2019-03-13T20:55:15.274Z,9.16
2019-03-13T21:00:21.297Z,8.12
2019-03-13T21:05:27.326Z,7.09
2019-03-13T21:10:33.425Z,6.10
2019-03-13T21:15:39.521Z,6.17
2019-03-13T21:20:45.555Z,5.66
2019-03-13T21:25:51.607Z,4.40
2019-03-13T21:30:57.618Z,4.79
2019-03-13T21:36:03.857Z,4.47
2019-03-13T21:41:09.869Z,3.80
2019-03-13T21:46:15.946Z,4.58
2019-03-13T21:51:22.038Z,5.23
2019-03-13T21:56:28.071Z,3.87
2019-03-13T22:01:34.267Z,5.04
2019-03-13T22:06:40.375Z,5.54
2019-03-13T22:11:46.372Z,4.35
2019-03-13T22:16:52.608Z,20.38
2019-03-13T22:21:58.694Z,4.34
2019-03-13T22:27:05.029Z,5.51
2019-03-13T22:32:11.101Z,6.91
2019-03-13T22:37:17.446Z,11.27
2019-03-13T22:42:23.675Z,12.23
2019-03-13T22:47:41.684Z,6.74
2019-03-13T22:52:35.667Z,7.24
2019-03-13T22:57:41.829Z,3.94
2019-03-13T23:02:48.036Z,5.69
2019-03-13T23:07:54.240Z,5.84
2019-03-13T23:13:00.847Z,3.86
2019-03-13T23:18:06.828Z,3.55
2019-03-13T23:23:13.052Z,2.43
2019-03-13T23:28:19.200Z,3.50
2019-03-13T23:33:25.729Z,1.34
2019-03-13T23:38:31.948Z,1.98
2019-03-13T23:43:38.512Z,1.96
2019-03-13T23:48:44.790Z,1.52
2019-03-13T23:53:51.006Z,1.87
2019-03-13T23:58:57.108Z,1.79
